Time;durP1;ratioP1;P1;durP2;ratioP2;P2;SDS_P1;SDS_P2;PMS_P1;PMS_P2;Temp;Humidity;BMP_temperature;BMP_pressure;BME280_temperature;BME280_humidity;BME280_pressure;Samples;Min_cycle;Max_cycle;Signal;HPM_P1;HPM_P2
2024/03/29 00:02:06;;;;;;;0.00;0.00;;;;;;;11.42;53.71;99010.19;5112268;28;20031;-78
2024/03/29 00:04:33;;;;;;;0.10;0.10;;;;;;;11.32;54.23;99013.31;5111444;28;20030;-79
2024/03/29 00:06:59;;;;;;;0.10;0.10;;;;;;;11.35;54.21;99011.44;5109131;28;20023;-79
2024/03/29 00:09:25;;;;;;;0.10;0.10;;;;;;;11.32;54.69;99013.31;5110139;28;20115;-78
2024/03/29 00:11:52;;;;;;;0.10;0.10;;;;;;;11.36;53.94;99010.50;5113469;28;20053;-78
2024/03/29 00:14:18;;;;;;;0.10;0.10;;;;;;;11.41;54.28;99009.31;5113799;28;20043;-79
2024/03/29 00:16:44;;;;;;;0.65;0.60;;;;;;;11.39;54.37;99007.69;5110225;28;20019;-77
2024/03/29 00:19:10;;;;;;;0.10;0.10;;;;;;;11.27;54.68;99012.69;5108255;28;20058;-77
2024/03/29 00:21:36;;;;;;;0.03;0.03;;;;;;;11.28;54.08;99009.09;5109466;28;20031;-78
2024/03/29 00:24:03;;;;;;;0.38;0.38;;;;;;;11.32;54.51;99015.94;5108371;28;20056;-77
2024/03/29 00:26:29;;;;;;;0.10;0.10;;;;;;;11.25;54.08;99017.25;5108925;28;20036;-77
2024/03/29 00:28:55;;;;;;;0.10;0.10;;;;;;;11.29;54.47;99028.50;5105535;28;20032;-77
2024/03/29 00:31:21;;;;;;;0.03;0.03;;;;;;;11.29;54.73;99028.50;5107696;28;20562;-77
2024/03/29 00:33:47;;;;;;;0.10;0.10;;;;;;;11.28;54.33;99032.13;5110127;28;20035;-78
2024/03/29 00:36:13;;;;;;;0.55;0.55;;;;;;;11.19;54.46;99036.13;5105512;28;20064;-78
2024/03/29 00:38:40;;;;;;;0.10;0.10;;;;;;;11.22;54.46;99029.78;5106917;28;20027;-79
2024/03/29 00:41:06;;;;;;;0.10;0.10;;;;;;;11.22;54.97;99027.13;5100798;28;20106;-78
2024/03/29 00:43:32;;;;;;;0.10;0.10;;;;;;;11.17;54.75;99024.72;5106704;28;20080;-78
2024/03/29 00:45:59;;;;;;;0.10;0.10;;;;;;;11.25;54.13;99038.44;5106742;28;20039;-76
2024/03/29 00:48:25;;;;;;;0.10;0.10;;;;;;;11.24;54.69;99036.72;5107016;28;20110;-75
2024/03/29 00:50:51;;;;;;;0.10;0.10;;;;;;;11.19;54.49;99033.47;5102525;28;20765;-76
2024/03/29 00:53:17;;;;;;;0.00;0.00;;;;;;;11.21;54.56;99043.97;5105162;28;20077;-77
2024/03/29 00:55:43;;;;;;;0.10;0.10;;;;;;;11.21;54.77;99031.56;5106445;28;20440;-78
2024/03/29 00:58:10;;;;;;;0.10;0.10;;;;;;;11.17;54.58;99033.50;5107806;28;20054;-79
2024/03/29 01:00:37;;;;;;;0.08;0.08;;;;;;;11.10;54.75;99044.53;5105696;28;20062;-77
2024/03/29 01:03:03;;;;;;;0.10;0.10;;;;;;;11.21;54.35;99049.28;5107550;28;20039;-76
2024/03/29 01:05:29;;;;;;;0.10;0.10;;;;;;;11.22;54.83;99049.19;5107639;28;20039;-76
2024/03/29 01:07:55;;;;;;;0.10;0.10;;;;;;;11.25;54.68;99046.41;5113566;27;20032;-76
2024/03/29 01:10:22;;;;;;;0.00;0.00;;;;;;;11.28;54.90;99059.47;5115597;28;20031;-76
2024/03/29 01:12:48;;;;;;;0.10;0.10;;;;;;;11.32;54.31;99047.78;5112805;28;20023;-76
2024/03/29 01:15:14;;;;;;;0.10;0.10;;;;;;;11.25;54.91;99049.06;5112017;28;20024;-78
2024/03/29 01:17:41;;;;;;;0.95;0.95;;;;;;;11.29;54.54;99050.59;5123662;28;20038;-78
2024/03/29 01:20:08;;;;;;;0.10;0.10;;;;;;;11.31;54.34;99038.13;5127308;28;20040;-77
2024/03/29 01:22:34;;;;;;;0.10;0.10;;;;;;;11.29;54.89;99040.00;5117186;28;20035;-76
2024/03/29 01:25:03;;;;;;;0.10;0.10;;;;;;;11.30;54.33;99041.72;5112566;28;20108;-79
2024/03/29 01:27:29;;;;;;;0.05;0.05;;;;;;;11.31;53.93;99048.72;5123329;28;20144;-80
2024/03/29 01:29:55;;;;;;;0.10;0.10;;;;;;;11.31;54.31;99043.44;5118902;28;20034;-79
2024/03/29 01:32:21;;;;;;;0.08;0.08;;;;;;;11.29;54.60;99042.66;5114674;28;20031;-77
2024/03/29 01:34:48;;;;;;;0.10;0.10;;;;;;;11.36;53.95;99043.16;5111224;28;20223;-78
2024/03/29 01:37:14;;;;;;;0.10;0.10;;;;;;;11.27;53.90;99025.94;5112268;28;20027;-78
2024/03/29 01:39:40;;;;;;;0.00;0.00;;;;;;;11.45;54.16;99020.63;5106608;28;20023;-78
2024/03/29 01:42:06;;;;;;;0.10;0.10;;;;;;;11.48;54.09;99017.81;5112578;28;20085;-78
2024/03/29 01:44:33;;;;;;;0.10;0.10;;;;;;;11.54;53.74;99016.63;5111717;27;20493;-78
2024/03/29 01:46:59;;;;;;;0.00;0.00;;;;;;;11.43;53.91;99019.84;5110643;28;20035;-76
2024/03/29 01:49:25;;;;;;;0.00;0.00;;;;;;;11.41;53.34;99008.47;5107573;28;20020;-76
2024/03/29 01:51:52;;;;;;;0.10;0.10;;;;;;;11.44;53.52;99009.16;5107792;28;20538;-78
2024/03/29 01:54:18;;;;;;;0.10;0.10;;;;;;;11.44;53.89;99010.94;5109394;28;20123;-78
2024/03/29 01:56:45;;;;;;;0.10;0.10;;;;;;;11.31;54.14;99011.63;5109431;28;20026;-78
2024/03/29 01:59:15;;;;;;;0.10;0.10;;;;;;;11.33;54.03;99022.97;5101579;28;20051;-77
2024/03/29 02:01:42;;;;;;;1.10;1.00;;;;;;;11.32;54.07;99023.91;5114935;28;20119;-77
2024/03/29 02:04:09;;;;;;;0.05;0.05;;;;;;;11.28;54.03;99026.81;5115729;28;20094;-76
2024/03/29 02:06:37;;;;;;;0.10;0.10;;;;;;;11.23;54.17;99028.88;5118350;28;20475;-77
2024/03/29 02:09:04;;;;;;;0.10;0.10;;;;;;;11.24;54.51;99036.72;5114705;28;20024;-76
2024/03/29 02:11:30;;;;;;;0.10;0.10;;;;;;;11.15;54.59;99034.53;5116762;28;20078;-76
2024/03/29 02:13:57;;;;;;;0.10;0.10;;;;;;;11.13;54.76;99033.78;5116009;28;20035;-76
2024/03/29 02:16:23;;;;;;;0.10;0.10;;;;;;;11.10;54.78;99029.50;5112404;28;20536;-77
2024/03/29 02:18:49;;;;;;;0.05;0.05;;;;;;;11.14;54.27;99038.13;5103818;28;20064;-79
2024/03/29 02:21:15;;;;;;;0.10;0.10;;;;;;;11.10;54.59;99023.31;5114060;28;20028;-77
2024/03/29 02:23:46;;;;;;;0.00;0.00;;;;;;;11.18;54.61;99037.03;5116471;28;20070;-78
2024/03/29 02:26:13;;;;;;;0.00;0.00;;;;;;;11.08;54.46;99041.06;5115929;28;20061;-77
2024/03/29 02:28:39;;;;;;;0.00;0.00;;;;;;;10.99;54.64;99055.66;5112521;28;20023;-77
2024/03/29 02:31:05;;;;;;;0.08;0.08;;;;;;;11.02;55.18;99052.03;5108611;28;20028;-76
2024/03/29 02:33:32;;;;;;;0.00;0.00;;;;;;;11.00;54.80;99044.13;5108163;28;20055;-75
2024/03/29 02:35:58;;;;;;;0.03;0.03;;;;;;;10.99;54.96;99045.94;5109310;28;20034;-77
2024/03/29 02:38:24;;;;;;;0.10;0.10;;;;;;;10.98;54.50;99051.31;5111914;28;20106;-79
2024/03/29 02:40:50;;;;;;;0.10;0.10;;;;;;;11.02;54.60;99046.72;5108602;28;20107;-77
2024/03/29 02:43:16;;;;;;;0.00;0.00;;;;;;;11.01;54.52;99045.84;5111002;28;20024;-77
2024/03/29 02:45:43;;;;;;;0.10;0.10;;;;;;;10.97;54.81;99052.25;5113528;28;20023;-77
2024/03/29 02:48:10;;;;;;;0.08;0.08;;;;;;;10.91;54.03;99044.59;5110414;28;20059;-78
2024/03/29 02:50:36;;;;;;;0.10;0.10;;;;;;;10.99;54.44;99043.28;5105769;28;20027;-78
2024/03/29 02:53:02;;;;;;;0.65;0.65;;;;;;;11.12;53.91;99047.97;5104487;28;20426;-79
2024/03/29 02:55:28;;;;;;;0.10;0.10;;;;;;;11.08;54.12;99046.38;5110974;28;20032;-78
2024/03/29 02:57:54;;;;;;;0.10;0.10;;;;;;;11.13;53.38;99034.63;5108899;28;20420;-78
2024/03/29 03:00:21;;;;;;;0.10;0.10;;;;;;;11.20;53.75;99040.44;5111350;28;20031;-78
2024/03/29 03:02:47;;;;;;;0.10;0.10;;;;;;;11.27;53.28;99047.16;5107260;28;20089;-79
2024/03/29 03:05:13;;;;;;;1.42;1.13;;;;;;;11.29;53.34;99040.00;5104433;28;20059;-78
2024/03/29 03:10:59;;;;;;;0.10;0.10;;;;;;;11.33;53.27;99052.16;5111926;28;20478;-78
2024/03/29 03:13:12;;;;;;;0.10;0.10;;;;;;;11.35;52.87;99053.88;5107463;28;20829;-77
2024/03/29 03:15:38;;;;;;;0.10;0.10;;;;;;;11.47;52.78;99058.53;5109519;28;20549;-78
2024/03/29 03:18:04;;;;;;;0.10;0.10;;;;;;;11.52;52.38;99048.53;5113152;28;20031;-79
2024/03/29 03:20:32;;;;;;;0.10;0.10;;;;;;;11.51;52.68;99054.78;5110896;28;20032;-79
2024/03/29 03:22:58;;;;;;;0.10;0.10;;;;;;;11.49;52.23;99062.81;5111920;28;20038;-78
2024/03/29 03:25:27;;;;;;;0.10;0.10;;;;;;;11.67;52.30;99059.28;5110959;28;20038;-78
2024/03/29 03:27:54;;;;;;;0.10;0.10;;;;;;;11.68;51.78;99061.84;5106251;28;20027;-77
2024/03/29 03:30:20;;;;;;;0.00;0.00;;;;;;;11.62;52.33;99070.97;5111141;28;20038;-79
2024/03/29 03:32:46;;;;;;;0.10;0.10;;;;;;;11.74;52.14;99071.25;5113287;28;20024;-79
2024/03/29 03:35:12;;;;;;;0.10;0.10;;;;;;;11.78;51.64;99063.06;5111559;28;20035;-78
2024/03/29 03:37:39;;;;;;;1.48;1.38;;;;;;;11.72;52.20;99068.69;5127049;28;20027;-78
2024/03/29 03:40:06;;;;;;;0.00;0.00;;;;;;;11.56;51.51;99068.63;5120131;28;20463;-77
2024/03/29 03:42:33;;;;;;;0.00;0.00;;;;;;;11.82;51.59;99064.63;5110469;28;20035;-78
2024/03/29 03:44:59;;;;;;;0.10;0.10;;;;;;;11.75;51.51;99063.25;5114339;28;20106;-78
2024/03/29 03:47:25;;;;;;;0.00;0.00;;;;;;;11.83;51.68;99068.13;5113307;28;20036;-77
2024/03/29 03:49:51;;;;;;;0.10;0.10;;;;;;;11.90;51.80;99064.22;5123100;27;20084;-79
2024/03/29 03:52:18;;;;;;;0.10;0.10;;;;;;;11.82;51.49;99069.06;5114050;28;20046;-78
2024/03/29 03:54:44;;;;;;;0.03;0.03;;;;;;;11.83;51.68;99070.78;5114025;27;20042;-76
2024/03/29 03:57:10;;;;;;;0.10;0.10;;;;;;;11.92;51.69;99064.97;5116483;28;20085;-77
2024/03/29 03:59:36;;;;;;;0.10;0.10;;;;;;;11.86;52.33;99075.06;5112742;28;20106;-77
2024/03/29 04:02:03;;;;;;;0.10;0.10;;;;;;;11.87;51.99;99079.44;5117801;28;20443;-77
2024/03/29 04:04:29;;;;;;;0.10;0.10;;;;;;;11.82;52.70;99077.03;5112590;28;20027;-78
2024/03/29 04:06:55;;;;;;;0.10;0.10;;;;;;;11.70;52.26;99086.50;5108655;28;20031;-77
2024/03/29 04:09:21;;;;;;;0.10;0.10;;;;;;;11.60;52.69;99086.13;5110427;28;20441;-77
2024/03/29 04:11:47;;;;;;;0.10;0.10;;;;;;;11.67;52.23;99085.81;5121055;28;20103;-79
2024/03/29 04:14:13;;;;;;;0.10;0.10;;;;;;;11.74;52.20;99081.88;5107579;28;20031;-77
2024/03/29 04:16:40;;;;;;;0.10;0.10;;;;;;;11.72;52.76;99089.06;5105333;28;20059;-78
2024/03/29 04:19:07;;;;;;;0.10;0.10;;;;;;;11.63;52.34;99090.41;5110794;28;20062;-79
2024/03/29 04:21:33;;;;;;;0.10;0.10;;;;;;;11.63;52.49;99080.66;5108403;28;20059;-77
2024/03/29 04:23:59;;;;;;;0.10;0.10;;;;;;;11.67;52.28;99089.31;5109602;28;20042;-75
2024/03/29 04:26:25;;;;;;;0.10;0.10;;;;;;;11.71;51.74;99071.44;5115048;28;20460;-76
2024/03/29 04:28:51;;;;;;;0.10;0.10;;;;;;;11.68;51.85;99067.16;5111889;28;20032;-76
2024/03/29 04:31:17;;;;;;;0.10;0.10;;;;;;;11.46;52.61;99083.31;5107524;28;20030;-76
2024/03/29 04:33:44;;;;;;;0.00;0.00;;;;;;;11.64;52.58;99090.31;5111271;28;20402;-77
2024/03/29 04:36:10;;;;;;;0.00;0.00;;;;;;;11.64;52.35;99087.69;5110573;28;20043;-77
2024/03/29 04:38:36;;;;;;;0.10;0.10;;;;;;;11.69;52.53;99076.84;5122475;28;20072;-77
2024/03/29 04:41:02;;;;;;;0.10;0.10;;;;;;;11.64;52.51;99085.03;5122912;28;20032;-78
2024/03/29 04:43:29;;;;;;;0.00;0.00;;;;;;;11.57;53.42;99083.63;5132814;28;20032;-78
2024/03/29 04:46:09;;;;;;;0.10;0.10;;;;;;;11.60;53.14;99086.13;5104739;28;20028;-80
2024/03/29 04:48:36;;;;;;;0.10;0.10;;;;;;;11.63;53.40;99075.34;5112835;28;20023;-77
2024/03/29 04:51:03;;;;;;;0.10;0.10;;;;;;;11.64;53.80;99095.63;5121367;28;20043;-77
2024/03/29 04:53:29;;;;;;;0.00;0.00;;;;;;;11.63;54.12;99096.56;5121620;28;20028;-77
2024/03/29 04:55:56;;;;;;;0.10;0.10;;;;;;;11.57;54.62;99096.88;5116926;28;20484;-78
2024/03/29 04:58:23;;;;;;;0.00;0.00;;;;;;;11.43;54.55;99107.38;5116707;28;20030;-78
2024/03/29 05:00:50;;;;;;;0.00;0.00;;;;;;;11.46;54.67;99105.41;5114480;28;20596;-78
2024/03/29 05:03:18;;;;;;;0.00;0.00;;;;;;;11.38;55.56;99101.44;5111023;28;20509;-78
2024/03/29 05:05:45;;;;;;;0.00;0.00;;;;;;;11.37;55.59;99097.91;5113501;28;20543;-79
2024/03/29 05:08:11;;;;;;;0.10;0.10;;;;;;;11.25;56.04;99109.16;5109900;28;20067;-79
2024/03/29 05:10:39;;;;;;;0.10;0.10;;;;;;;11.36;56.46;99109.47;5115115;28;20020;-79
2024/03/29 05:13:05;;;;;;;0.10;0.10;;;;;;;11.23;57.02;99105.75;5115232;28;20522;-78
2024/03/29 05:15:32;;;;;;;0.00;0.00;;;;;;;11.20;57.76;99109.38;5114327;27;20053;-78
2024/03/29 05:17:58;;;;;;;0.10;0.10;;;;;;;11.26;59.13;99097.63;5104933;28;20038;-79
2024/03/29 05:20:24;;;;;;;0.10;0.10;;;;;;;11.20;59.81;99114.69;5103022;28;20475;-78
2024/03/29 05:22:50;;;;;;;0.10;0.10;;;;;;;11.12;60.45;99120.38;5106286;28;20031;-79
2024/03/29 05:25:17;;;;;;;0.10;0.10;;;;;;;11.07;60.99;99110.94;5108052;28;20040;-80
2024/03/29 05:27:43;;;;;;;0.00;0.00;;;;;;;10.94;61.83;99098.31;5112720;28;20023;-78
2024/03/29 05:30:10;;;;;;;0.00;0.00;;;;;;;10.75;62.44;99105.44;5111255;28;20015;-77
2024/03/29 05:32:37;;;;;;;0.00;0.00;;;;;;;10.73;62.82;99120.53;5110729;28;20028;-78
2024/03/29 05:35:03;;;;;;;0.00;0.00;;;;;;;10.70;63.52;99110.09;5103951;28;20514;-79
2024/03/29 05:37:29;;;;;;;0.00;0.00;;;;;;;10.61;63.89;99100.81;5107510;28;20407;-78
2024/03/29 05:39:59;;;;;;;0.10;0.10;;;;;;;10.65;64.13;99099.72;5106175;28;20504;-79
2024/03/29 05:42:27;;;;;;;0.00;0.00;;;;;;;10.58;64.38;99117.72;5112774;28;20034;-79
2024/03/29 05:44:53;;;;;;;0.00;0.00;;;;;;;10.52;64.54;99118.84;5105303;28;20036;-78
2024/03/29 05:47:20;;;;;;;0.10;0.10;;;;;;;10.40;65.01;99131.81;5130424;28;20034;-77
2024/03/29 05:49:46;;;;;;;0.38;0.38;;;;;;;10.38;65.44;99138.97;5134910;28;20024;-77
2024/03/29 05:52:13;;;;;;;0.10;0.10;;;;;;;10.42;65.27;99132.56;5117366;28;20053;-76
2024/03/29 05:54:40;;;;;;;0.03;0.03;;;;;;;10.52;65.23;99141.84;5113363;28;20019;-79
2024/03/29 05:57:08;;;;;;;0.10;0.10;;;;;;;10.52;65.16;99142.69;5118029;28;20024;-79
2024/03/29 05:59:34;;;;;;;0.10;0.10;;;;;;;10.58;64.86;99154.78;5112074;28;20050;-77
2024/03/29 06:02:01;;;;;;;0.00;0.00;;;;;;;10.56;65.29;99161.94;5104086;27;20073;-78
2024/03/29 06:04:35;;;;;;;0.10;0.10;;;;;;;10.54;65.26;99169.06;5109554;28;20024;-77
2024/03/29 06:07:03;;;;;;;0.00;0.00;;;;;;;10.51;65.40;99172.72;5110611;28;20046;-79
2024/03/29 06:09:29;;;;;;;0.10;0.10;;;;;;;10.57;65.48;99168.94;5110052;28;20024;-79
2024/03/29 06:11:56;;;;;;;0.10;0.10;;;;;;;10.59;65.63;99176.81;5111741;28;20066;-78
2024/03/29 06:17:25;;;;;;;0.10;0.10;;;;;;;10.68;65.27;99169.31;5107158;28;20114;-77
2024/03/29 06:19:56;;;;;;;0.10;0.10;;;;;;;10.75;65.70;99177.81;5111404;28;20027;-78
2024/03/29 06:22:23;;;;;;;0.00;0.00;;;;;;;10.72;65.25;99187.72;5111761;28;20047;-76
2024/03/29 06:24:51;;;;;;;0.00;0.00;;;;;;;10.79;65.33;99189.13;5111693;28;20059;-79
2024/03/29 06:27:20;;;;;;;0.10;0.10;;;;;;;10.76;65.42;99200.72;5108596;28;20034;-79
2024/03/29 06:29:47;;;;;;;0.10;0.10;;;;;;;10.88;65.27;99204.59;5119726;27;20031;-77
2024/03/29 06:32:13;;;;;;;0.10;0.10;;;;;;;10.89;65.55;99208.97;5121636;27;20032;-77
2024/03/29 06:34:40;;;;;;;0.00;0.00;;;;;;;10.87;65.27;99202.03;5114843;28;20027;-77
2024/03/29 06:37:07;;;;;;;0.10;0.10;;;;;;;10.94;65.49;99199.00;5114826;28;20023;-77
2024/03/29 06:39:33;;;;;;;0.10;0.10;;;;;;;10.97;65.31;99190.03;5113577;28;20026;-79
2024/03/29 06:42:00;;;;;;;0.00;0.00;;;;;;;10.93;65.31;99188.44;5112136;27;20038;-77
2024/03/29 06:44:26;;;;;;;0.10;0.10;;;;;;;10.96;65.52;99183.03;5108565;28;20028;-79
2024/03/29 06:46:52;;;;;;;0.10;0.10;;;;;;;10.96;65.59;99189.16;5106059;27;20064;-78
2024/03/29 06:49:18;;;;;;;0.00;0.00;;;;;;;11.08;65.29;99186.84;5114434;28;20027;-77
2024/03/29 06:51:44;;;;;;;0.10;0.10;;;;;;;11.05;65.63;99176.41;5114412;28;20028;-79
2024/03/29 06:54:10;;;;;;;0.08;0.08;;;;;;;11.17;65.48;99189.06;5109396;27;20046;-77
2024/03/29 06:56:37;;;;;;;0.00;0.00;;;;;;;11.20;64.98;99199.50;5109912;27;20066;-77
2024/03/29 06:59:03;;;;;;;0.10;0.10;;;;;;;11.29;64.61;99199.06;5105521;28;20083;-77
2024/03/29 07:01:29;;;;;;;0.10;0.10;;;;;;;11.29;64.85;99199.06;5114635;27;20121;-77
2024/03/29 07:03:55;;;;;;;0.00;0.00;;;;;;;11.41;64.59;99202.88;5110478;27;20514;-76
2024/03/29 07:06:21;;;;;;;0.10;0.10;;;;;;;11.45;64.97;99196.53;5097084;28;20111;-78
2024/03/29 07:08:47;;;;;;;0.90;0.90;;;;;;;11.41;64.67;99188.78;5106791;28;20391;-77
2024/03/29 07:11:14;;;;;;;0.00;0.00;;;;;;;11.48;64.38;99188.41;5110262;28;20056;-79
2024/03/29 07:13:40;;;;;;;0.10;0.10;;;;;;;11.48;64.52;99192.84;5110121;28;20055;-78
2024/03/29 07:16:07;;;;;;;0.05;0.05;;;;;;;11.49;64.32;99186.63;5108429;27;20040;-77
2024/03/29 07:18:33;;;;;;;0.10;0.10;;;;;;;11.59;63.82;99193.16;5104034;28;20035;-77
2024/03/29 07:21:00;;;;;;;0.00;0.00;;;;;;;11.70;63.91;99183.78;5112470;28;20028;-76
2024/03/29 07:23:26;;;;;;;0.10;0.10;;;;;;;11.79;63.80;99196.59;5111267;28;20505;-77
2024/03/29 07:26:01;;;;;;;0.10;0.10;;;;;;;11.86;63.99;99197.97;5106059;28;20118;-78
2024/03/29 07:28:28;;;;;;;0.10;0.10;;;;;;;11.79;63.46;99209.88;5112450;28;20123;-77
2024/03/29 07:30:55;;;;;;;0.00;0.00;;;;;;;11.86;63.77;99202.44;5111822;28;20028;-76
2024/03/29 07:33:26;;;;;;;0.08;0.08;;;;;;;11.86;63.12;99208.59;5118450;28;20036;-76
2024/03/29 07:35:53;;;;;;;0.00;0.00;;;;;;;11.76;63.39;99216.19;5115179;28;20525;-77
2024/03/29 07:38:20;;;;;;;0.00;0.00;;;;;;;12.00;63.27;99212.38;5118751;28;20031;-75
2024/03/29 07:40:47;;;;;;;0.00;0.00;;;;;;;12.02;63.16;99202.53;5118887;28;20027;-76
2024/03/29 07:43:14;;;;;;;0.10;0.10;;;;;;;12.09;62.23;99209.25;5113545;28;20032;-76
2024/03/29 07:45:44;;;;;;;0.00;0.00;;;;;;;12.12;62.73;99214.38;5115518;28;20023;-78
2024/03/29 07:48:13;;;;;;;0.10;0.10;;;;;;;12.13;62.62;99213.44;5113363;28;20035;-77
2024/03/29 07:50:41;;;;;;;0.00;0.00;;;;;;;12.22;62.13;99215.59;5120048;28;20037;-76
2024/03/29 07:53:07;;;;;;;0.00;0.00;;;;;;;12.27;62.43;99221.56;5112247;28;20031;-78
2024/03/29 07:55:37;;;;;;;0.80;0.80;;;;;;;12.33;62.02;99222.16;5116082;28;20494;-77
2024/03/29 07:58:04;;;;;;;0.10;0.10;;;;;;;12.25;61.73;99215.47;5112261;28;20585;-78
2024/03/29 08:00:32;;;;;;;0.10;0.10;;;;;;;12.26;62.04;99217.19;5113396;28;20023;-78
2024/03/29 08:02:59;;;;;;;0.00;0.00;;;;;;;12.18;61.71;99202.59;5111044;28;20031;-77
2024/03/29 08:05:26;;;;;;;0.03;0.03;;;;;;;12.16;61.47;99210.63;5117936;28;20024;-79
2024/03/29 08:07:52;;;;;;;0.10;0.10;;;;;;;12.19;61.92;99221.09;5120058;28;20478;-76
2024/03/29 08:10:18;;;;;;;0.00;0.00;;;;;;;12.18;61.79;99230.00;5105481;28;20024;-77
2024/03/29 08:12:44;;;;;;;0.00;0.00;;;;;;;12.09;60.78;99233.16;5107606;28;20042;-77
2024/03/29 08:15:10;;;;;;;0.00;0.00;;;;;;;12.19;60.93;99242.34;5113167;28;20488;-78
2024/03/29 08:17:37;;;;;;;0.10;0.10;;;;;;;12.15;61.01;99232.81;5115444;28;20451;-77
2024/03/29 08:20:04;;;;;;;0.10;0.10;;;;;;;12.17;61.68;99222.97;5115833;28;20044;-79
2024/03/29 08:22:33;;;;;;;0.10;0.10;;;;;;;12.28;60.91;99219.75;5116988;28;20069;-77
2024/03/29 08:25:00;;;;;;;0.10;0.10;;;;;;;12.36;61.99;99216.69;5116160;28;20032;-78
2024/03/29 08:27:27;;;;;;;0.10;0.10;;;;;;;12.46;61.52;99231.16;5116013;28;20054;-78
2024/03/29 08:29:53;;;;;;;0.10;0.10;;;;;;;12.69;60.86;99239.72;5105550;28;20024;-78
2024/03/29 08:32:20;;;;;;;0.10;0.10;;;;;;;12.64;59.65;99252.41;5112939;27;20111;-81
2024/03/29 08:34:46;;;;;;;0.05;0.05;;;;;;;12.73;60.38;99263.34;5114202;27;20024;-77
2024/03/29 08:37:12;;;;;;;0.10;0.10;;;;;;;12.77;60.06;99258.75;5116156;28;20024;-77
2024/03/29 08:39:38;;;;;;;0.00;0.00;;;;;;;12.78;59.73;99256.03;5115500;28;20496;-78
2024/03/29 08:42:06;;;;;;;0.10;0.10;;;;;;;12.95;60.05;99257.72;5109042;28;20031;-79
2024/03/29 08:44:33;;;;;;;0.10;0.10;;;;;;;12.95;59.48;99257.72;5116073;28;20036;-78
2024/03/29 08:47:01;;;;;;;0.00;0.00;;;;;;;12.98;58.87;99251.38;5110034;28;20035;-76
2024/03/29 08:49:28;;;;;;;0.10;0.10;;;;;;;13.06;59.29;99243.84;5107206;28;20032;-79
2024/03/29 08:51:54;;;;;;;0.05;0.05;;;;;;;13.12;58.79;99253.28;5110609;28;20088;-78
2024/03/29 08:54:20;;;;;;;0.10;0.10;;;;;;;13.28;58.78;99237.31;5117372;28;20036;-78
2024/03/29 08:56:47;;;;;;;0.10;0.10;;;;;;;13.38;59.18;99237.69;5116711;28;20058;-75
2024/03/29 08:59:14;;;;;;;0.05;0.05;;;;;;;13.46;58.40;99250.53;5110023;28;20391;-78
2024/03/29 09:01:44;;;;;;;0.00;0.00;;;;;;;13.59;57.94;99255.06;5111612;28;20405;-78
2024/03/29 09:04:12;;;;;;;0.10;0.10;;;;;;;13.71;57.62;99256.16;5120584;28;20048;-77
2024/03/29 09:06:38;;;;;;;0.10;0.10;;;;;;;13.84;58.17;99253.63;5115217;28;20408;-76
2024/03/29 09:09:05;;;;;;;0.57;0.57;;;;;;;13.93;57.36;99254.88;5113771;28;20043;-76
2024/03/29 09:11:32;;;;;;;0.10;0.10;;;;;;;14.03;57.02;99255.19;5119964;28;20604;-77
2024/03/29 09:13:58;;;;;;;0.00;0.00;;;;;;;14.02;56.68;99249.00;5125623;28;20548;-78
2024/03/29 09:16:25;;;;;;;0.10;0.10;;;;;;;14.00;55.87;99258.03;5114578;28;20118;-77
2024/03/29 09:18:54;;;;;;;0.10;0.10;;;;;;;14.01;55.65;99262.44;5114885;28;20031;-75
2024/03/29 09:21:21;;;;;;;0.05;0.05;;;;;;;14.16;56.07;99280.16;5115641;28;20019;-76
2024/03/29 09:23:48;;;;;;;0.10;0.10;;;;;;;14.26;56.00;99282.28;5111822;28;20645;-78
2024/03/29 09:26:15;;;;;;;0.08;0.08;;;;;;;14.40;56.40;99285.81;5109099;28;20031;-78
2024/03/29 09:28:41;;;;;;;0.00;0.00;;;;;;;14.35;55.35;99279.03;5113759;28;20019;-76
2024/03/29 09:31:08;;;;;;;0.00;0.00;;;;;;;14.52;55.72;99273.53;5114851;28;20027;-76
2024/03/29 09:33:35;;;;;;;0.00;0.00;;;;;;;14.61;54.92;99281.91;5121333;28;20032;-76
2024/03/29 09:36:01;;;;;;;0.10;0.10;;;;;;;14.57;54.81;99286.56;5133323;28;20040;-80
2024/03/29 09:38:28;;;;;;;0.10;0.10;;;;;;;14.48;54.91;99297.78;5131177;28;20681;-78
2024/03/29 09:41:10;;;;;;;0.05;0.05;;;;;;;14.63;55.02;99293.31;5114909;28;20028;-79
2024/03/29 09:43:36;;;;;;;0.10;0.10;;;;;;;14.58;54.70;99293.63;5108845;28;20020;-79
2024/03/29 09:46:03;;;;;;;0.00;0.00;;;;;;;14.69;54.50;99308.97;5115390;28;20035;-79
2024/03/29 09:48:36;;;;;;;0.03;0.03;;;;;;;14.75;53.81;99319.25;5116500;27;20030;-79
2024/03/29 09:51:05;;;;;;;0.10;0.10;;;;;;;14.63;53.87;99319.97;5115442;28;20826;-80
2024/03/29 09:53:34;;;;;;;0.10;0.10;;;;;;;14.77;54.31;99314.69;5115670;28;20038;-79
2024/03/29 09:56:01;;;;;;;0.00;0.00;;;;;;;14.80;54.52;99302.97;5114922;28;20368;-79
2024/03/29 09:58:27;;;;;;;0.10;0.10;;;;;;;15.01;54.61;99292.78;5115327;28;20070;-79
2024/03/29 10:00:55;;;;;;;0.10;0.10;;;;;;;15.17;53.83;99285.50;5109284;27;20049;-80
2024/03/29 10:03:28;;;;;;;0.10;0.10;;;;;;;15.26;53.12;99285.88;5120002;27;20075;-78
2024/03/29 10:05:59;;;;;;;0.10;0.10;;;;;;;15.44;53.88;99295.38;5111224;27;20024;-79
2024/03/29 10:08:30;;;;;;;0.00;0.00;;;;;;;15.63;53.84;99280.81;5109340;28;20032;-79
2024/03/29 10:10:57;;;;;;;0.00;0.00;;;;;;;15.55;53.07;99278.63;5107955;28;20029;-79
2024/03/29 10:13:24;;;;;;;0.10;0.10;;;;;;;15.40;52.35;99280.47;5120739;27;20031;-80
2024/03/29 10:15:53;;;;;;;0.10;0.10;;;;;;;15.52;53.38;99285.03;5121289;27;20143;-79
2024/03/29 10:18:20;;;;;;;0.10;0.10;;;;;;;15.56;53.07;99290.19;5112082;28;20024;-79
2024/03/29 10:20:46;;;;;;;0.00;0.00;;;;;;;15.48;52.26;99294.19;5112202;28;20047;-77
2024/03/29 10:23:14;;;;;;;0.65;0.65;;;;;;;15.30;52.38;99298.06;5115160;28;20038;-78
2024/03/29 10:25:42;;;;;;;0.10;0.10;;;;;;;15.25;52.68;99300.16;5114811;28;20032;-77
2024/03/29 10:28:08;;;;;;;0.20;0.20;;;;;;;15.26;52.41;99291.22;5099425;28;20028;-77
2024/03/29 10:30:35;;;;;;;0.10;0.10;;;;;;;15.22;52.92;99297.72;5112521;28;20051;-76
2024/03/29 10:33:01;;;;;;;0.28;0.28;;;;;;;15.22;53.47;99303.88;5108091;28;20034;-77
2024/03/29 10:35:27;;;;;;;0.08;0.08;;;;;;;15.04;53.28;99321.91;5108631;28;20111;-78
2024/03/29 10:37:54;;;;;;;0.10;0.10;;;;;;;15.19;53.32;99299.63;5106239;28;20038;-77
2024/03/29 10:40:24;;;;;;;0.00;0.00;;;;;;;15.16;54.02;99294.47;5113723;28;20059;-77
2024/03/29 10:42:52;;;;;;;0.52;0.52;;;;;;;15.28;53.70;99289.31;5110335;28;20035;-78
2024/03/29 10:45:19;;;;;;;0.10;0.10;;;;;;;15.44;52.56;99319.38;5116268;27;20418;-78
2024/03/29 10:47:46;;;;;;;0.10;0.10;;;;;;;15.54;52.74;99303.63;5118496;27;20020;-78
2024/03/29 10:50:13;;;;;;;0.00;0.00;;;;;;;15.56;52.54;99308.84;5113858;28;20104;-77
2024/03/29 10:52:40;;;;;;;0.20;0.20;;;;;;;15.48;52.29;99315.53;5109230;28;20507;-77
2024/03/29 10:55:09;;;;;;;0.10;0.10;;;;;;;15.66;51.96;99313.50;5113024;28;20028;-75
2024/03/29 10:57:40;;;;;;;0.05;0.05;;;;;;;15.82;51.74;99317.84;5112474;28;20097;-77
2024/03/29 11:02:51;;;;;;;2.50;0.50;;;;;;;15.50;51.67;99345.69;5068831;27;1900043;-78
2024/03/29 11:05:18;;;;;;;0.10;0.10;;;;;;;15.60;51.77;99345.94;5111365;28;20030;-77
2024/03/29 11:07:46;;;;;;;0.45;0.45;;;;;;;15.50;50.67;99345.69;5110642;28;20034;-76
2024/03/29 11:10:35;;;;;;;0.10;0.10;;;;;;;15.62;50.24;99343.16;5108781;28;20179;-77
2024/03/29 11:15:44;;;;;;;0.00;0.00;;;;;;;15.74;50.98;99331.69;5109633;27;20334;-77
2024/03/29 11:18:10;;;;;;;0.10;0.10;;;;;;;15.89;50.50;99337.84;5107626;28;20055;-77
2024/03/29 11:20:39;;;;;;;0.10;0.10;;;;;;;15.92;50.67;99344.81;5109608;28;20193;-77
2024/03/29 11:23:10;;;;;;;0.10;0.10;;;;;;;16.00;48.68;99338.00;5110434;28;20055;-77
2024/03/29 11:25:41;;;;;;;0.17;0.17;;;;;;;16.07;48.08;99334.91;5107121;28;20028;-77
2024/03/29 11:28:09;;;;;;;0.20;0.20;;;;;;;16.11;47.60;99329.28;5100957;28;20020;-76
2024/03/29 11:30:46;;;;;;;0.00;0.00;;;;;;;16.30;46.33;99338.72;5095128;28;20496;-76
2024/03/29 11:36:13;;;;;;;0.70;0.70;;;;;;;16.64;46.78;99331.88;5091350;28;20406;-77
2024/03/29 11:38:40;;;;;;;0.10;0.10;;;;;;;16.94;46.78;99327.22;5067656;28;20044;-79
2024/03/29 11:41:12;;;;;;;0.10;0.10;;;;;;;17.11;46.36;99324.19;5070368;28;20043;-79
2024/03/29 11:43:39;;;;;;;0.10;0.10;;;;;;;17.21;44.89;99326.19;5069049;28;20048;-78
2024/03/29 11:46:08;;;;;;;0.10;0.10;;;;;;;17.23;45.23;99343.84;5070322;28;20503;-78
2024/03/29 11:48:35;;;;;;;0.10;0.10;;;;;;;17.37;44.95;99324.13;5068789;28;20096;-78